Orangeburg Municipal Airport Orangeburg US
ICAO: KOGB
IATA: OGB
Category: Medium
Scheduled Services: No

Elevation: 195 ft
TransAlt. 18000 ft.

Airport Communications:
COLUMBIA APP/DEP:124.15
ASOS:118.525
CTAF/UNICOM:122.7

KOGB Zoom In..

Runways:

(A) RW 05 length 4508 ft width 100 ft
---- / hdg 49

(B) RW 17 length 5399 ft width 100 ft
---- / hdg 174

(C) RW 23 length 4508 ft width 100 ft
---- / hdg 229

(D) RW 35 length 5399 ft width 100 ft
---- / hdg 354

Location; KOGB
Day. 15 / Time. 21.53 Zulu
* Altimeter: 29.99
* Temperature: 32° c. 89.6°f.
* Wind from: 160° Speed 06 kn.
Dewpoint: 18° c.
Visibility: 10 Statute Miles.
Clouds: Clear (automated report).

KOGB 152153Z AUTO 16006KT 10SM CLR 32/18 A2999 RMK AO2 SLP153 T03220183


Wind From 160°
Speed 06 kn.

 
 
jpsmedia.com for Web Design worldairports.se 2018   terms of use